sensor_id;sensor_type;location;lat;lon;timestamp;temperature;humidity
30037;DHT22;36325;51.512;-0.382;2024-01-27T00:00:33;4.40;99.90
30037;DHT22;36325;51.512;-0.382;2024-01-27T00:03:00;4.40;99.90
30037;DHT22;36325;51.512;-0.382;2024-01-27T00:05:27;4.40;99.90
30037;DHT22;36325;51.512;-0.382;2024-01-27T00:07:56;4.30;99.90
30037;DHT22;36325;51.512;-0.382;2024-01-27T00:10:24;4.20;99.90
30037;DHT22;36325;51.512;-0.382;2024-01-27T00:12:51;4.20;99.90
30037;DHT22;36325;51.512;-0.382;2024-01-27T00:15:18;4.10;99.90
30037;DHT22;36325;51.512;-0.382;2024-01-27T00:17:47;4.10;99.90
30037;DHT22;36325;51.512;-0.382;2024-01-27T00:20:14;4.00;99.90
30037;DHT22;36325;51.512;-0.382;2024-01-27T00:22:41;4.00;99.90
30037;DHT22;36325;51.512;-0.382;2024-01-27T00:25:08;4.00;99.90
30037;DHT22;36325;51.512;-0.382;2024-01-27T00:27:36;4.10;99.90
30037;DHT22;36325;51.512;-0.382;2024-01-27T00:30:03;4.00;99.90
30037;DHT22;36325;51.512;-0.382;2024-01-27T00:32:31;4.10;99.90
30037;DHT22;36325;51.512;-0.382;2024-01-27T00:34:58;4.20;99.90
30037;DHT22;36325;51.512;-0.382;2024-01-27T00:37:25;4.10;99.90
30037;DHT22;36325;51.512;-0.382;2024-01-27T00:39:53;4.10;99.90
30037;DHT22;36325;51.512;-0.382;2024-01-27T00:42:20;4.00;99.90
30037;DHT22;36325;51.512;-0.382;2024-01-27T00:44:51;4.00;99.90
30037;DHT22;36325;51.512;-0.382;2024-01-27T00:47:18;3.90;99.90
30037;DHT22;36325;51.512;-0.382;2024-01-27T00:49:45;3.90;99.90
30037;DHT22;36325;51.512;-0.382;2024-01-27T00:52:13;3.90;99.90
30037;DHT22;36325;51.512;-0.382;2024-01-27T00:54:40;3.90;99.90
30037;DHT22;36325;51.512;-0.382;2024-01-27T00:57:07;3.80;99.90
30037;DHT22;36325;51.512;-0.382;2024-01-27T00:59:34;3.80;99.90
30037;DHT22;36325;51.512;-0.382;2024-01-27T01:02:02;3.80;99.90
30037;DHT22;36325;51.512;-0.382;2024-01-27T01:04:29;3.80;99.90
30037;DHT22;36325;51.512;-0.382;2024-01-27T01:06:56;3.70;99.90
30037;DHT22;36325;51.512;-0.382;2024-01-27T01:09:23;3.70;99.90
30037;DHT22;36325;51.512;-0.382;2024-01-27T01:11:51;3.70;99.90
30037;DHT22;36325;51.512;-0.382;2024-01-27T01:14:18;3.70;99.90
30037;DHT22;36325;51.512;-0.382;2024-01-27T01:16:45;3.80;99.90
30037;DHT22;36325;51.512;-0.382;2024-01-27T01:19:13;3.70;99.90
30037;DHT22;36325;51.512;-0.382;2024-01-27T01:21:42;3.70;99.90
30037;DHT22;36325;51.512;-0.382;2024-01-27T01:24:09;3.80;99.90
30037;DHT22;36325;51.512;-0.382;2024-01-27T01:26:36;3.80;99.90
30037;DHT22;36325;51.512;-0.382;2024-01-27T01:29:04;3.80;99.90
30037;DHT22;36325;51.512;-0.382;2024-01-27T01:31:31;3.90;99.90
30037;DHT22;36325;51.512;-0.382;2024-01-27T01:33:58;3.90;99.90
30037;DHT22;36325;51.512;-0.382;2024-01-27T01:36:26;3.90;99.90
30037;DHT22;36325;51.512;-0.382;2024-01-27T01:38:53;3.80;99.90
30037;DHT22;36325;51.512;-0.382;2024-01-27T01:41:20;3.70;99.90
30037;DHT22;36325;51.512;-0.382;2024-01-27T01:43:47;3.80;99.90
30037;DHT22;36325;51.512;-0.382;2024-01-27T01:46:18;3.80;99.90
30037;DHT22;36325;51.512;-0.382;2024-01-27T01:48:49;3.80;99.90
30037;DHT22;36325;51.512;-0.382;2024-01-27T01:51:17;3.70;99.90
30037;DHT22;36325;51.512;-0.382;2024-01-27T01:53:47;3.70;99.90
30037;DHT22;36325;51.512;-0.382;2024-01-27T01:56:15;3.60;99.90
30037;DHT22;36325;51.512;-0.382;2024-01-27T01:58:42;3.60;99.90
30037;DHT22;36325;51.512;-0.382;2024-01-27T02:01:09;3.70;99.90
30037;DHT22;36325;51.512;-0.382;2024-01-27T02:03:37;3.70;99.90
30037;DHT22;36325;51.512;-0.382;2024-01-27T02:06:05;3.60;99.90
30037;DHT22;36325;51.512;-0.382;2024-01-27T02:08:34;3.60;99.90
30037;DHT22;36325;51.512;-0.382;2024-01-27T02:11:01;3.60;99.90
30037;DHT22;36325;51.512;-0.382;2024-01-27T02:13:29;3.50;99.90
30037;DHT22;36325;51.512;-0.382;2024-01-27T02:15:57;3.50;99.90
30037;DHT22;36325;51.512;-0.382;2024-01-27T02:18:24;3.50;99.90
30037;DHT22;36325;51.512;-0.382;2024-01-27T02:20:51;3.60;99.90
30037;DHT22;36325;51.512;-0.382;2024-01-27T02:23:19;3.50;99.90
30037;DHT22;36325;51.512;-0.382;2024-01-27T02:25:46;3.50;99.90
30037;DHT22;36325;51.512;-0.382;2024-01-27T02:28:13;3.50;99.90
30037;DHT22;36325;51.512;-0.382;2024-01-27T02:30:40;3.40;99.90
30037;DHT22;36325;51.512;-0.382;2024-01-27T02:33:08;3.40;99.90
30037;DHT22;36325;51.512;-0.382;2024-01-27T02:35:57;3.30;99.90
30037;DHT22;36325;51.512;-0.382;2024-01-27T02:38:23;3.30;99.90
30037;DHT22;36325;51.512;-0.382;2024-01-27T02:40:50;3.40;99.90
30037;DHT22;36325;51.512;-0.382;2024-01-27T02:43:17;3.40;99.90
30037;DHT22;36325;51.512;-0.382;2024-01-27T02:45:44;3.40;99.90
30037;DHT22;36325;51.512;-0.382;2024-01-27T02:48:11;3.40;99.90
30037;DHT22;36325;51.512;-0.382;2024-01-27T02:50:40;3.30;99.90
30037;DHT22;36325;51.512;-0.382;2024-01-27T02:53:07;3.30;99.90
30037;DHT22;36325;51.512;-0.382;2024-01-27T02:55:34;3.20;99.90
30037;DHT22;36325;51.512;-0.382;2024-01-27T02:58:01;3.20;99.90
30037;DHT22;36325;51.512;-0.382;2024-01-27T03:00:29;3.10;99.90
30037;DHT22;36325;51.512;-0.382;2024-01-27T03:02:56;3.10;99.90
30037;DHT22;36325;51.512;-0.382;2024-01-27T03:05:25;3.00;99.90
30037;DHT22;36325;51.512;-0.382;2024-01-27T03:07:53;3.10;99.90
30037;DHT22;36325;51.512;-0.382;2024-01-27T03:10:25;3.10;99.90
30037;DHT22;36325;51.512;-0.382;2024-01-27T03:12:53;3.20;99.90
30037;DHT22;36325;51.512;-0.382;2024-01-27T03:15:20;3.20;99.90
30037;DHT22;36325;51.512;-0.382;2024-01-27T03:17:47;3.20;99.90
30037;DHT22;36325;51.512;-0.382;2024-01-27T03:20:14;3.20;99.90
30037;DHT22;36325;51.512;-0.382;2024-01-27T03:22:41;3.20;99.90
30037;DHT22;36325;51.512;-0.382;2024-01-27T03:25:09;3.20;99.90
30037;DHT22;36325;51.512;-0.382;2024-01-27T03:27:37;2.90;99.90
30037;DHT22;36325;51.512;-0.382;2024-01-27T03:30:05;3.10;99.90
30037;DHT22;36325;51.512;-0.382;2024-01-27T03:32:33;3.10;99.90
30037;DHT22;36325;51.512;-0.382;2024-01-27T03:35:00;3.00;99.90
30037;DHT22;36325;51.512;-0.382;2024-01-27T03:37:28;3.10;99.90
30037;DHT22;36325;51.512;-0.382;2024-01-27T03:39:55;3.00;99.90
30037;DHT22;36325;51.512;-0.382;2024-01-27T03:42:22;3.00;99.90
30037;DHT22;36325;51.512;-0.382;2024-01-27T03:44:51;3.10;99.90
30037;DHT22;36325;51.512;-0.382;2024-01-27T03:47:20;3.10;99.90
30037;DHT22;36325;51.512;-0.382;2024-01-27T03:49:47;3.20;99.90
30037;DHT22;36325;51.512;-0.382;2024-01-27T03:52:14;3.10;99.90
30037;DHT22;36325;51.512;-0.382;2024-01-27T03:54:42;3.10;99.90
30037;DHT22;36325;51.512;-0.382;2024-01-27T03:57:09;3.10;99.90
30037;DHT22;36325;51.512;-0.382;2024-01-27T03:59:36;3.10;99.90
30037;DHT22;36325;51.512;-0.382;2024-01-27T04:02:06;3.10;99.90
30037;DHT22;36325;51.512;-0.382;2024-01-27T04:04:33;3.10;99.90
30037;DHT22;36325;51.512;-0.382;2024-01-27T04:07:01;3.10;99.90
30037;DHT22;36325;51.512;-0.382;2024-01-27T04:09:28;3.10;99.90
30037;DHT22;36325;51.512;-0.382;2024-01-27T04:11:56;3.10;99.90
30037;DHT22;36325;51.512;-0.382;2024-01-27T04:14:23;3.30;99.90
30037;DHT22;36325;51.512;-0.382;2024-01-27T04:16:50;3.30;99.90
30037;DHT22;36325;51.512;-0.382;2024-01-27T04:19:17;3.30;99.90
30037;DHT22;36325;51.512;-0.382;2024-01-27T04:21:44;3.20;99.90
30037;DHT22;36325;51.512;-0.382;2024-01-27T04:24:12;3.20;99.90
30037;DHT22;36325;51.512;-0.382;2024-01-27T04:26:39;3.20;99.90
30037;DHT22;36325;51.512;-0.382;2024-01-27T04:29:06;3.20;99.90
30037;DHT22;36325;51.512;-0.382;2024-01-27T04:31:38;3.30;99.90
30037;DHT22;36325;51.512;-0.382;2024-01-27T04:34:05;3.20;99.90
30037;DHT22;36325;51.512;-0.382;2024-01-27T04:36:32;3.20;99.90
30037;DHT22;36325;51.512;-0.382;2024-01-27T04:39:00;3.20;99.90
30037;DHT22;36325;51.512;-0.382;2024-01-27T04:41:27;3.20;99.90
30037;DHT22;36325;51.512;-0.382;2024-01-27T04:43:54;3.20;99.90
30037;DHT22;36325;51.512;-0.382;2024-01-27T04:46:23;3.10;99.90
30037;DHT22;36325;51.512;-0.382;2024-01-27T04:48:50;3.10;99.90
30037;DHT22;36325;51.512;-0.382;2024-01-27T04:51:17;3.00;99.90
30037;DHT22;36325;51.512;-0.382;2024-01-27T04:53:45;3.00;99.90
30037;DHT22;36325;51.512;-0.382;2024-01-27T04:56:12;3.00;99.90
30037;DHT22;36325;51.512;-0.382;2024-01-27T04:58:40;2.90;99.90
30037;DHT22;36325;51.512;-0.382;2024-01-27T05:01:07;2.90;99.90
30037;DHT22;36325;51.512;-0.382;2024-01-27T05:03:35;2.90;99.90
30037;DHT22;36325;51.512;-0.382;2024-01-27T05:06:07;2.80;99.90
30037;DHT22;36325;51.512;-0.382;2024-01-27T05:08:34;2.80;99.90
30037;DHT22;36325;51.512;-0.382;2024-01-27T05:11:03;2.80;99.90
30037;DHT22;36325;51.512;-0.382;2024-01-27T05:13:30;2.80;99.90
30037;DHT22;36325;51.512;-0.382;2024-01-27T05:15:57;2.80;99.90
30037;DHT22;36325;51.512;-0.382;2024-01-27T05:18:25;2.80;99.90
30037;DHT22;36325;51.512;-0.382;2024-01-27T05:20:53;2.80;99.90
30037;DHT22;36325;51.512;-0.382;2024-01-27T05:23:20;2.70;99.90
30037;DHT22;36325;51.512;-0.382;2024-01-27T05:25:48;2.80;99.90
30037;DHT22;36325;51.512;-0.382;2024-01-27T05:28:16;2.80;99.90
30037;DHT22;36325;51.512;-0.382;2024-01-27T05:30:45;2.90;99.90
30037;DHT22;36325;51.512;-0.382;2024-01-27T05:33:15;2.80;99.90
30037;DHT22;36325;51.512;-0.382;2024-01-27T05:35:43;3.00;99.90
30037;DHT22;36325;51.512;-0.382;2024-01-27T05:38:11;3.10;99.90
30037;DHT22;36325;51.512;-0.382;2024-01-27T05:40:38;3.00;99.90
30037;DHT22;36325;51.512;-0.382;2024-01-27T05:43:07;3.00;99.90
30037;DHT22;36325;51.512;-0.382;2024-01-27T05:45:34;3.00;99.90
30037;DHT22;36325;51.512;-0.382;2024-01-27T05:48:02;3.00;99.90
30037;DHT22;36325;51.512;-0.382;2024-01-27T05:50:29;2.80;99.90
30037;DHT22;36325;51.512;-0.382;2024-01-27T05:52:58;2.90;99.90
30037;DHT22;36325;51.512;-0.382;2024-01-27T05:55:26;2.90;99.90
30037;DHT22;36325;51.512;-0.382;2024-01-27T05:57:53;2.90;99.90
30037;DHT22;36325;51.512;-0.382;2024-01-27T06:00:28;2.80;99.90
30037;DHT22;36325;51.512;-0.382;2024-01-27T06:02:55;2.80;99.90
30037;DHT22;36325;51.512;-0.382;2024-01-27T06:05:36;2.70;99.90
30037;DHT22;36325;51.512;-0.382;2024-01-27T06:08:04;2.70;99.90
30037;DHT22;36325;51.512;-0.382;2024-01-27T06:10:31;2.70;99.90
30037;DHT22;36325;51.512;-0.382;2024-01-27T06:12:59;2.60;99.90
30037;DHT22;36325;51.512;-0.382;2024-01-27T06:15:27;2.50;99.90
30037;DHT22;36325;51.512;-0.382;2024-01-27T06:17:54;2.40;99.90
30037;DHT22;36325;51.512;-0.382;2024-01-27T06:20:21;2.50;99.90
30037;DHT22;36325;51.512;-0.382;2024-01-27T06:22:49;2.40;99.90
30037;DHT22;36325;51.512;-0.382;2024-01-27T06:27:46;2.30;99.90
30037;DHT22;36325;51.512;-0.382;2024-01-27T06:30:14;2.30;99.90
30037;DHT22;36325;51.512;-0.382;2024-01-27T06:32:42;2.30;99.90
30037;DHT22;36325;51.512;-0.382;2024-01-27T06:35:10;2.30;99.90
30037;DHT22;36325;51.512;-0.382;2024-01-27T06:37:40;2.40;99.90
30037;DHT22;36325;51.512;-0.382;2024-01-27T06:40:07;2.30;99.90
30037;DHT22;36325;51.512;-0.382;2024-01-27T06:42:36;2.30;99.90
30037;DHT22;36325;51.512;-0.382;2024-01-27T06:45:03;3.70;99.90
30037;DHT22;36325;51.512;-0.382;2024-01-27T06:47:31;2.30;99.90
30037;DHT22;36325;51.512;-0.382;2024-01-27T06:49:58;2.40;99.90
30037;DHT22;36325;51.512;-0.382;2024-01-27T06:52:25;2.50;99.90
30037;DHT22;36325;51.512;-0.382;2024-01-27T06:54:55;2.60;99.90
30037;DHT22;36325;51.512;-0.382;2024-01-27T06:57:23;2.60;99.90
30037;DHT22;36325;51.512;-0.382;2024-01-27T06:59:51;2.60;99.90
30037;DHT22;36325;51.512;-0.382;2024-01-27T07:02:24;2.60;99.90
30037;DHT22;36325;51.512;-0.382;2024-01-27T07:04:53;2.60;99.90
30037;DHT22;36325;51.512;-0.382;2024-01-27T07:07:22;2.60;99.90
30037;DHT22;36325;51.512;-0.382;2024-01-27T07:09:51;2.60;99.90
30037;DHT22;36325;51.512;-0.382;2024-01-27T07:12:18;2.60;99.90
30037;DHT22;36325;51.512;-0.382;2024-01-27T07:14:48;2.60;99.90
30037;DHT22;36325;51.512;-0.382;2024-01-27T07:17:16;2.60;99.90
30037;DHT22;36325;51.512;-0.382;2024-01-27T07:19:44;2.60;99.90
30037;DHT22;36325;51.512;-0.382;2024-01-27T07:22:11;2.50;99.90
30037;DHT22;36325;51.512;-0.382;2024-01-27T07:24:39;2.50;99.90
30037;DHT22;36325;51.512;-0.382;2024-01-27T07:27:06;2.50;99.90
30037;DHT22;36325;51.512;-0.382;2024-01-27T07:29:34;2.50;99.90
30037;DHT22;36325;51.512;-0.382;2024-01-27T07:32:02;2.50;99.90
30037;DHT22;36325;51.512;-0.382;2024-01-27T07:34:29;2.50;99.90
30037;DHT22;36325;51.512;-0.382;2024-01-27T07:36:57;2.50;99.90
30037;DHT22;36325;51.512;-0.382;2024-01-27T07:39:35;2.50;99.90
30037;DHT22;36325;51.512;-0.382;2024-01-27T07:42:02;2.50;99.90
30037;DHT22;36325;51.512;-0.382;2024-01-27T07:44:29;2.40;99.90
30037;DHT22;36325;51.512;-0.382;2024-01-27T07:46:57;2.40;99.90
30037;DHT22;36325;51.512;-0.382;2024-01-27T07:49:24;2.30;99.90
30037;DHT22;36325;51.512;-0.382;2024-01-27T07:51:51;2.30;99.90
30037;DHT22;36325;51.512;-0.382;2024-01-27T07:54:20;2.30;99.90
30037;DHT22;36325;51.512;-0.382;2024-01-27T07:56:47;2.40;99.90
30037;DHT22;36325;51.512;-0.382;2024-01-27T07:59:15;2.40;99.90
30037;DHT22;36325;51.512;-0.382;2024-01-27T08:01:43;2.40;99.90
30037;DHT22;36325;51.512;-0.382;2024-01-27T08:04:12;2.40;99.90
30037;DHT22;36325;51.512;-0.382;2024-01-27T08:06:46;2.40;99.90
30037;DHT22;36325;51.512;-0.382;2024-01-27T08:09:14;2.50;99.90
30037;DHT22;36325;51.512;-0.382;2024-01-27T08:11:42;2.50;99.90
30037;DHT22;36325;51.512;-0.382;2024-01-27T08:14:09;2.60;99.90
30037;DHT22;36325;51.512;-0.382;2024-01-27T08:16:36;2.60;99.90
30037;DHT22;36325;51.512;-0.382;2024-01-27T08:19:04;2.60;99.90
30037;DHT22;36325;51.512;-0.382;2024-01-27T08:21:32;2.70;99.90
30037;DHT22;36325;51.512;-0.382;2024-01-27T08:23:59;2.70;99.90
30037;DHT22;36325;51.512;-0.382;2024-01-27T08:26:27;2.80;99.90
30037;DHT22;36325;51.512;-0.382;2024-01-27T08:28:54;2.80;99.90
30037;DHT22;36325;51.512;-0.382;2024-01-27T08:31:23;2.80;99.90
30037;DHT22;36325;51.512;-0.382;2024-01-27T08:33:50;2.90;99.90
30037;DHT22;36325;51.512;-0.382;2024-01-27T08:36:17;2.90;99.90
30037;DHT22;36325;51.512;-0.382;2024-01-27T08:38:44;3.10;99.90
30037;DHT22;36325;51.512;-0.382;2024-01-27T08:41:12;3.20;99.90
30037;DHT22;36325;51.512;-0.382;2024-01-27T08:43:39;3.30;99.90
30037;DHT22;36325;51.512;-0.382;2024-01-27T08:46:06;3.40;99.90
30037;DHT22;36325;51.512;-0.382;2024-01-27T08:48:38;3.60;99.90
30037;DHT22;36325;51.512;-0.382;2024-01-27T08:51:08;3.70;99.90
30037;DHT22;36325;51.512;-0.382;2024-01-27T08:53:37;3.80;99.90
30037;DHT22;36325;51.512;-0.382;2024-01-27T08:56:04;3.90;99.90
30037;DHT22;36325;51.512;-0.382;2024-01-27T08:58:32;4.00;99.90
30037;DHT22;36325;51.512;-0.382;2024-01-27T09:00:59;4.10;99.90
30037;DHT22;36325;51.512;-0.382;2024-01-27T09:03:32;4.10;99.90
30037;DHT22;36325;51.512;-0.382;2024-01-27T09:05:59;4.20;99.90
30037;DHT22;36325;51.512;-0.382;2024-01-27T09:08:27;4.30;99.90
30037;DHT22;36325;51.512;-0.382;2024-01-27T09:10:54;4.40;99.90
30037;DHT22;36325;51.512;-0.382;2024-01-27T09:13:22;4.40;99.90
30037;DHT22;36325;51.512;-0.382;2024-01-27T09:15:50;4.50;99.90
30037;DHT22;36325;51.512;-0.382;2024-01-27T09:18:18;4.50;99.90
30037;DHT22;36325;51.512;-0.382;2024-01-27T09:20:46;4.60;99.90
30037;DHT22;36325;51.512;-0.382;2024-01-27T09:23:13;4.60;99.90
30037;DHT22;36325;51.512;-0.382;2024-01-27T09:25:42;4.70;99.90
30037;DHT22;36325;51.512;-0.382;2024-01-27T09:28:09;4.80;99.90
30037;DHT22;36325;51.512;-0.382;2024-01-27T09:30:36;4.80;99.90
30037;DHT22;36325;51.512;-0.382;2024-01-27T09:33:05;4.90;99.90
30037;DHT22;36325;51.512;-0.382;2024-01-27T09:35:32;5.00;99.90
30037;DHT22;36325;51.512;-0.382;2024-01-27T09:37:59;5.10;99.90
30037;DHT22;36325;51.512;-0.382;2024-01-27T09:40:26;5.20;99.90
30037;DHT22;36325;51.512;-0.382;2024-01-27T09:42:54;5.20;99.90
30037;DHT22;36325;51.512;-0.382;2024-01-27T09:45:24;5.30;99.90
30037;DHT22;36325;51.512;-0.382;2024-01-27T09:47:53;5.40;99.90
30037;DHT22;36325;51.512;-0.382;2024-01-27T09:50:20;5.50;99.90
30037;DHT22;36325;51.512;-0.382;2024-01-27T09:52:48;5.60;99.90
30037;DHT22;36325;51.512;-0.382;2024-01-27T09:55:16;5.60;99.90
30037;DHT22;36325;51.512;-0.382;2024-01-27T09:57:44;5.70;99.90
30037;DHT22;36325;51.512;-0.382;2024-01-27T10:00:11;5.90;99.90
30037;DHT22;36325;51.512;-0.382;2024-01-27T10:02:39;6.00;99.90
30037;DHT22;36325;51.512;-0.382;2024-01-27T10:05:10;6.10;99.90
30037;DHT22;36325;51.512;-0.382;2024-01-27T10:07:39;6.20;99.90
30037;DHT22;36325;51.512;-0.382;2024-01-27T10:10:07;6.30;99.90
30037;DHT22;36325;51.512;-0.382;2024-01-27T10:12:37;6.40;99.90
30037;DHT22;36325;51.512;-0.382;2024-01-27T10:15:17;6.60;99.90
30037;DHT22;36325;51.512;-0.382;2024-01-27T10:17:45;6.70;99.90
30037;DHT22;36325;51.512;-0.382;2024-01-27T10:20:12;6.70;99.90
30037;DHT22;36325;51.512;-0.382;2024-01-27T10:22:45;6.90;99.90
30037;DHT22;36325;51.512;-0.382;2024-01-27T10:25:13;7.00;99.90
30037;DHT22;36325;51.512;-0.382;2024-01-27T10:27:41;7.10;99.90
30037;DHT22;36325;51.512;-0.382;2024-01-27T10:30:15;7.30;99.90
30037;DHT22;36325;51.512;-0.382;2024-01-27T10:32:43;7.30;99.90
30037;DHT22;36325;51.512;-0.382;2024-01-27T10:35:10;7.30;99.90
30037;DHT22;36325;51.512;-0.382;2024-01-27T10:37:38;7.50;99.90
30037;DHT22;36325;51.512;-0.382;2024-01-27T10:40:07;7.50;99.90
30037;DHT22;36325;51.512;-0.382;2024-01-27T10:42:39;7.60;99.90
30037;DHT22;36325;51.512;-0.382;2024-01-27T10:45:07;7.60;99.90
30037;DHT22;36325;51.512;-0.382;2024-01-27T10:47:38;7.60;99.90
30037;DHT22;36325;51.512;-0.382;2024-01-27T10:50:08;7.80;99.90
30037;DHT22;36325;51.512;-0.382;2024-01-27T10:52:38;7.90;99.90
30037;DHT22;36325;51.512;-0.382;2024-01-27T10:55:08;7.90;99.90
30037;DHT22;36325;51.512;-0.382;2024-01-27T10:57:37;8.00;99.90
30037;DHT22;36325;51.512;-0.382;2024-01-27T11:00:04;8.10;99.90
30037;DHT22;36325;51.512;-0.382;2024-01-27T11:02:35;8.30;99.90
30037;DHT22;36325;51.512;-0.382;2024-01-27T11:05:05;8.40;99.90
30037;DHT22;36325;51.512;-0.382;2024-01-27T11:07:34;8.60;99.90
30037;DHT22;36325;51.512;-0.382;2024-01-27T11:10:02;8.70;99.90
30037;DHT22;36325;51.512;-0.382;2024-01-27T11:12:29;8.80;99.90
30037;DHT22;36325;51.512;-0.382;2024-01-27T11:14:57;8.80;99.90
30037;DHT22;36325;51.512;-0.382;2024-01-27T11:17:27;8.90;99.90
30037;DHT22;36325;51.512;-0.382;2024-01-27T11:19:55;9.10;99.90
30037;DHT22;36325;51.512;-0.382;2024-01-27T11:22:26;9.20;99.90
30037;DHT22;36325;51.512;-0.382;2024-01-27T11:27:39;9.80;99.90
30037;DHT22;36325;51.512;-0.382;2024-01-27T11:30:12;9.80;99.90
30037;DHT22;36325;51.512;-0.382;2024-01-27T11:32:52;10.00;99.90
30037;DHT22;36325;51.512;-0.382;2024-01-27T11:35:20;10.00;99.90
30037;DHT22;36325;51.512;-0.382;2024-01-27T11:37:49;10.10;99.90
30037;DHT22;36325;51.512;-0.382;2024-01-27T11:40:17;10.20;99.90
30037;DHT22;36325;51.512;-0.382;2024-01-27T11:42:53;10.20;99.90
30037;DHT22;36325;51.512;-0.382;2024-01-27T11:45:20;10.40;99.90
30037;DHT22;36325;51.512;-0.382;2024-01-27T11:47:47;10.60;99.90
30037;DHT22;36325;51.512;-0.382;2024-01-27T11:50:16;10.90;99.90
30037;DHT22;36325;51.512;-0.382;2024-01-27T11:52:43;11.10;99.90
30037;DHT22;36325;51.512;-0.382;2024-01-27T11:55:11;11.50;99.90
30037;DHT22;36325;51.512;-0.382;2024-01-27T11:57:38;11.70;99.90
30037;DHT22;36325;51.512;-0.382;2024-01-27T12:00:05;11.90;99.90
30037;DHT22;36325;51.512;-0.382;2024-01-27T12:02:33;12.10;99.90
30037;DHT22;36325;51.512;-0.382;2024-01-27T12:05:00;12.10;99.90
30037;DHT22;36325;51.512;-0.382;2024-01-27T12:07:27;12.20;99.90
30037;DHT22;36325;51.512;-0.382;2024-01-27T12:09:55;13.50;99.90
30037;DHT22;36325;51.512;-0.382;2024-01-27T12:12:22;12.30;99.90
30037;DHT22;36325;51.512;-0.382;2024-01-27T12:14:50;12.60;99.90
30037;DHT22;36325;51.512;-0.382;2024-01-27T12:17:18;12.90;99.90
30037;DHT22;36325;51.512;-0.382;2024-01-27T12:19:45;13.10;99.90
30037;DHT22;36325;51.512;-0.382;2024-01-27T12:22:26;13.10;99.90
30037;DHT22;36325;51.512;-0.382;2024-01-27T12:24:54;13.20;99.90
30037;DHT22;36325;51.512;-0.382;2024-01-27T12:27:23;13.30;99.90
30037;DHT22;36325;51.512;-0.382;2024-01-27T12:29:51;13.50;99.90
30037;DHT22;36325;51.512;-0.382;2024-01-27T12:32:18;13.60;99.90
30037;DHT22;36325;51.512;-0.382;2024-01-27T12:34:45;13.80;99.90
30037;DHT22;36325;51.512;-0.382;2024-01-27T12:37:15;14.00;99.90
30037;DHT22;36325;51.512;-0.382;2024-01-27T12:39:42;14.10;99.90
30037;DHT22;36325;51.512;-0.382;2024-01-27T12:42:11;14.10;99.90
30037;DHT22;36325;51.512;-0.382;2024-01-27T12:44:38;14.40;99.90
30037;DHT22;36325;51.512;-0.382;2024-01-27T12:47:06;14.70;99.90
30037;DHT22;36325;51.512;-0.382;2024-01-27T12:49:33;14.60;99.90
30037;DHT22;36325;51.512;-0.382;2024-01-27T12:52:01;14.40;99.90
30037;DHT22;36325;51.512;-0.382;2024-01-27T12:54:29;14.20;99.90
30037;DHT22;36325;51.512;-0.382;2024-01-27T12:56:56;13.80;99.90
30037;DHT22;36325;51.512;-0.382;2024-01-27T12:59:23;14.00;99.90
30037;DHT22;36325;51.512;-0.382;2024-01-27T13:01:50;13.80;99.90
30037;DHT22;36325;51.512;-0.382;2024-01-27T13:04:18;13.90;99.90
30037;DHT22;36325;51.512;-0.382;2024-01-27T13:06:45;14.10;99.90
30037;DHT22;36325;51.512;-0.382;2024-01-27T13:09:12;14.30;99.90
30037;DHT22;36325;51.512;-0.382;2024-01-27T13:11:40;14.30;99.90
30037;DHT22;36325;51.512;-0.382;2024-01-27T13:14:08;14.10;99.90
30037;DHT22;36325;51.512;-0.382;2024-01-27T13:16:36;13.90;99.90
30037;DHT22;36325;51.512;-0.382;2024-01-27T13:19:03;14.00;99.90
30037;DHT22;36325;51.512;-0.382;2024-01-27T13:21:30;14.00;99.90
30037;DHT22;36325;51.512;-0.382;2024-01-27T13:23:58;14.10;99.90
30037;DHT22;36325;51.512;-0.382;2024-01-27T13:26:25;14.20;99.90
30037;DHT22;36325;51.512;-0.382;2024-01-27T13:28:53;13.90;99.90
30037;DHT22;36325;51.512;-0.382;2024-01-27T13:31:20;14.00;99.90
30037;DHT22;36325;51.512;-0.382;2024-01-27T13:33:47;14.00;99.90
30037;DHT22;36325;51.512;-0.382;2024-01-27T13:36:15;13.80;99.90
30037;DHT22;36325;51.512;-0.382;2024-01-27T13:38:44;13.50;99.90
30037;DHT22;36325;51.512;-0.382;2024-01-27T13:41:11;13.50;99.90
30037;DHT22;36325;51.512;-0.382;2024-01-27T13:43:38;13.50;99.90
30037;DHT22;36325;51.512;-0.382;2024-01-27T13:46:05;13.80;99.90
30037;DHT22;36325;51.512;-0.382;2024-01-27T13:48:32;14.30;99.90
30037;DHT22;36325;51.512;-0.382;2024-01-27T13:51:00;14.50;99.90
30037;DHT22;36325;51.512;-0.382;2024-01-27T13:53:27;14.50;99.90
30037;DHT22;36325;51.512;-0.382;2024-01-27T13:56:01;14.50;99.90
30037;DHT22;36325;51.512;-0.382;2024-01-27T13:58:28;14.10;99.90
30037;DHT22;36325;51.512;-0.382;2024-01-27T14:00:55;13.70;99.90
30037;DHT22;36325;51.512;-0.382;2024-01-27T14:03:22;13.40;99.90
30037;DHT22;36325;51.512;-0.382;2024-01-27T14:05:50;13.10;99.90
30037;DHT22;36325;51.512;-0.382;2024-01-27T14:08:17;12.70;99.90
30037;DHT22;36325;51.512;-0.382;2024-01-27T14:10:46;12.30;99.90
30037;DHT22;36325;51.512;-0.382;2024-01-27T14:13:15;12.30;99.90
30037;DHT22;36325;51.512;-0.382;2024-01-27T14:15:42;12.20;99.90
30037;DHT22;36325;51.512;-0.382;2024-01-27T14:18:09;12.10;99.90
30037;DHT22;36325;51.512;-0.382;2024-01-27T14:20:41;12.10;99.90
30037;DHT22;36325;51.512;-0.382;2024-01-27T14:23:08;12.10;99.90
30037;DHT22;36325;51.512;-0.382;2024-01-27T14:25:36;12.20;99.90
30037;DHT22;36325;51.512;-0.382;2024-01-27T14:28:04;12.00;99.90
30037;DHT22;36325;51.512;-0.382;2024-01-27T14:30:34;12.30;99.90
30037;DHT22;36325;51.512;-0.382;2024-01-27T14:33:01;12.30;99.90
30037;DHT22;36325;51.512;-0.382;2024-01-27T14:35:29;12.40;99.90
30037;DHT22;36325;51.512;-0.382;2024-01-27T14:37:56;12.40;99.90
30037;DHT22;36325;51.512;-0.382;2024-01-27T14:40:24;12.90;99.90
30037;DHT22;36325;51.512;-0.382;2024-01-27T14:42:52;13.30;99.90
30037;DHT22;36325;51.512;-0.382;2024-01-27T14:45:19;13.50;99.90
30037;DHT22;36325;51.512;-0.382;2024-01-27T14:47:47;13.70;99.90
30037;DHT22;36325;51.512;-0.382;2024-01-27T14:50:15;13.90;99.90
30037;DHT22;36325;51.512;-0.382;2024-01-27T14:52:42;13.90;99.90
30037;DHT22;36325;51.512;-0.382;2024-01-27T14:55:09;13.70;99.90
30037;DHT22;36325;51.512;-0.382;2024-01-27T14:57:39;13.50;99.90
30037;DHT22;36325;51.512;-0.382;2024-01-27T15:00:09;13.40;99.90
30037;DHT22;36325;51.512;-0.382;2024-01-27T15:02:36;13.30;99.90
30037;DHT22;36325;51.512;-0.382;2024-01-27T15:05:03;13.30;99.90
30037;DHT22;36325;51.512;-0.382;2024-01-27T15:07:31;13.30;99.90
30037;DHT22;36325;51.512;-0.382;2024-01-27T15:09:58;13.20;99.90
30037;DHT22;36325;51.512;-0.382;2024-01-27T15:12:25;13.10;99.90
30037;DHT22;36325;51.512;-0.382;2024-01-27T15:14:55;12.90;99.90
30037;DHT22;36325;51.512;-0.382;2024-01-27T15:17:22;12.60;99.90
30037;DHT22;36325;51.512;-0.382;2024-01-27T15:19:51;12.10;99.90
30037;DHT22;36325;51.512;-0.382;2024-01-27T15:22:18;12.00;99.90
30037;DHT22;36325;51.512;-0.382;2024-01-27T15:24:46;11.90;99.90
30037;DHT22;36325;51.512;-0.382;2024-01-27T15:27:13;11.70;99.90
30037;DHT22;36325;51.512;-0.382;2024-01-27T15:29:40;11.60;99.90
30037;DHT22;36325;51.512;-0.382;2024-01-27T15:32:07;11.40;99.90
30037;DHT22;36325;51.512;-0.382;2024-01-27T15:34:35;11.30;99.90
30037;DHT22;36325;51.512;-0.382;2024-01-27T15:37:02;11.20;99.90